Aérodrome :
LOGIN :

S'inscrire | Disclaimer

   EN    FR    IT 

 










Légende :    VFR   VFR Marginal   IFR   IFR Intensif   IFR Très Intensif
Visi : 
Plafond : 
>= 8 km
>= 3000ft
5 à 8 km
1000 à 3000 ft
1500m à 5 km
500 à 1000 ft
800 à 1500m
200 à 500 ft
< 800m
< 200 ft
Symboles :   Orages  Brouillard  Fortes neiges  Fortes précipitations  Vent > 20 kt
SIGMETs :   Divers  Orages  Givrage  Turbulence  Onde Orograph.  Cendres Volcan.






- Altitude de l'aérodrome : 160 ft
- Code IATA : FMO


EDDG - Münster Osnabrück Int.

DERNIER METAR :
  • 172220Z 23017KT 9999 -SHRA SCT018CB BKN025 07/04 Q1013 TEMPO 22020G30KT SHRA

METARs EXPIRÉS :
  • 172150Z 21011KT 9999 FEW018CB BKN025 07/04 Q1013 TEMPO 23015G25KT SHRA
  • 172120Z 22012KT 190V260 9999 -SHRA FEW018CB BKN025 07/04 Q1013 TEMPO 23015G25KT SHRA
  • 172050Z 22011KT 190V250 9999 FEW018CB BKN025 07/04 Q1013 TEMPO 23015G25KT SHRA
  • 172020Z 23012KT 9999 -SHRA FEW020CB BKN035 07/04 Q1013 TEMPO 23015G25KT SHRA
  • 171950Z 23012KT 9999 FEW020CB BKN035 07/04 Q1012 TEMPO 23015G25KT SHRA

TAF TAF EDDG
Valide du 17 à 18h jusqu'au 18 à 18h UTC


171700Z 1718/1818 23015G25KT 9999 SCT030
TEMPO 1718/1805 24020G30KT SHRA BKN020CB
TEMPO 1809/1816 24020G30KT SHRA BKN020CB



MET'MAP, la Météo Aéronautique d'un coup d'oeil ! - Copyright ORBIFLY Décembre 2007 - Disclaimer

ORBIFLY MET'MAP TEAM :

Programmation & Développement : Alexandra Zaïnal
Sur une idée originale de : Baudouin d'Aumeries
Assistance à la programmation : Marc-Olivier Méhu
Soutien technique & logistique : Manuel Goepfert

Contact : metmap@orbifly.com




SOURCES & CREDITS :

   NOAA